sensor_id;sensor_type;location;lat;lon;timestamp;pressure;altitude;pressure_sealevel;temperature
9119;BMP180;4594;50.994;7.126;2022-07-04T00:00:28;101096.00;;;21.10
9119;BMP180;4594;50.994;7.126;2022-07-04T00:02:54;101090.00;;;21.00
9119;BMP180;4594;50.994;7.126;2022-07-04T00:05:20;101080.00;;;21.00
9119;BMP180;4594;50.994;7.126;2022-07-04T00:07:48;101091.00;;;20.90
9119;BMP180;4594;50.994;7.126;2022-07-04T00:10:19;101090.00;;;20.80
9119;BMP180;4594;50.994;7.126;2022-07-04T00:12:46;101100.00;;;20.80
9119;BMP180;4594;50.994;7.126;2022-07-04T00:15:14;101091.00;;;20.80
9119;BMP180;4594;50.994;7.126;2022-07-04T00:17:40;101086.00;;;20.70
9119;BMP180;4594;50.994;7.126;2022-07-04T00:20:08;101104.00;;;20.70
9119;BMP180;4594;50.994;7.126;2022-07-04T00:22:34;101099.00;;;20.70
9119;BMP180;4594;50.994;7.126;2022-07-04T00:25:00;101102.00;;;20.60
9119;BMP180;4594;50.994;7.126;2022-07-04T00:27:26;101094.00;;;20.60
9119;BMP180;4594;50.994;7.126;2022-07-04T00:29:52;101087.00;;;20.50
9119;BMP180;4594;50.994;7.126;2022-07-04T00:32:18;101090.00;;;20.50
9119;BMP180;4594;50.994;7.126;2022-07-04T00:34:44;101082.00;;;20.40
9119;BMP180;4594;50.994;7.126;2022-07-04T00:37:10;101082.00;;;20.30
9119;BMP180;4594;50.994;7.126;2022-07-04T00:39:36;101091.00;;;20.30
9119;BMP180;4594;50.994;7.126;2022-07-04T00:42:02;101095.00;;;20.30
9119;BMP180;4594;50.994;7.126;2022-07-04T00:44:28;101079.00;;;20.20
9119;BMP180;4594;50.994;7.126;2022-07-04T00:46:55;101076.00;;;20.20
9119;BMP180;4594;50.994;7.126;2022-07-04T00:49:21;101066.00;;;20.10
9119;BMP180;4594;50.994;7.126;2022-07-04T00:51:47;101077.00;;;20.10
9119;BMP180;4594;50.994;7.126;2022-07-04T00:54:15;101057.00;;;20.00
9119;BMP180;4594;50.994;7.126;2022-07-04T00:56:44;101059.00;;;19.90
9119;BMP180;4594;50.994;7.126;2022-07-04T00:59:11;101078.00;;;19.90
9119;BMP180;4594;50.994;7.126;2022-07-04T01:01:38;101073.00;;;19.80
9119;BMP180;4594;50.994;7.126;2022-07-04T01:04:05;101066.00;;;19.80
9119;BMP180;4594;50.994;7.126;2022-07-04T01:06:32;101056.00;;;19.70
9119;BMP180;4594;50.994;7.126;2022-07-04T01:08:59;101063.00;;;19.70
9119;BMP180;4594;50.994;7.126;2022-07-04T01:11:25;101065.00;;;19.60
9119;BMP180;4594;50.994;7.126;2022-07-04T01:13:53;101051.00;;;19.60
9119;BMP180;4594;50.994;7.126;2022-07-04T01:16:19;101051.00;;;19.50
9119;BMP180;4594;50.994;7.126;2022-07-04T01:18:44;101060.00;;;19.50
9119;BMP180;4594;50.994;7.126;2022-07-04T01:21:10;101068.00;;;19.40
9119;BMP180;4594;50.994;7.126;2022-07-04T01:23:40;101067.00;;;19.40
9119;BMP180;4594;50.994;7.126;2022-07-04T01:26:07;101065.00;;;19.40
9119;BMP180;4594;50.994;7.126;2022-07-04T01:28:33;101060.00;;;19.30
9119;BMP180;4594;50.994;7.126;2022-07-04T01:30:59;101070.00;;;19.30
9119;BMP180;4594;50.994;7.126;2022-07-04T01:33:25;101069.00;;;19.30
9119;BMP180;4594;50.994;7.126;2022-07-04T01:35:50;101060.00;;;19.20
9119;BMP180;4594;50.994;7.126;2022-07-04T01:38:16;101064.00;;;19.20
9119;BMP180;4594;50.994;7.126;2022-07-04T01:40:42;101072.00;;;19.20
9119;BMP180;4594;50.994;7.126;2022-07-04T01:43:08;101076.00;;;19.10
9119;BMP180;4594;50.994;7.126;2022-07-04T01:45:34;101065.00;;;19.10
9119;BMP180;4594;50.994;7.126;2022-07-04T01:48:08;101080.00;;;19.00
9119;BMP180;4594;50.994;7.126;2022-07-04T01:50:35;101077.00;;;19.00
9119;BMP180;4594;50.994;7.126;2022-07-04T01:53:01;101086.00;;;19.00
9119;BMP180;4594;50.994;7.126;2022-07-04T01:55:28;101067.00;;;18.90
9119;BMP180;4594;50.994;7.126;2022-07-04T01:57:54;101069.00;;;18.90
9119;BMP180;4594;50.994;7.126;2022-07-04T02:00:20;101081.00;;;18.90
9119;BMP180;4594;50.994;7.126;2022-07-04T02:03:04;101076.00;;;18.80
9119;BMP180;4594;50.994;7.126;2022-07-04T02:05:29;101089.00;;;18.80
9119;BMP180;4594;50.994;7.126;2022-07-04T02:07:55;101100.00;;;18.80
9119;BMP180;4594;50.994;7.126;2022-07-04T02:10:21;101107.00;;;18.70
9119;BMP180;4594;50.994;7.126;2022-07-04T02:12:47;101100.00;;;18.70
9119;BMP180;4594;50.994;7.126;2022-07-04T02:15:39;101117.00;;;18.60
9119;BMP180;4594;50.994;7.126;2022-07-04T02:18:10;101107.00;;;18.60
9119;BMP180;4594;50.994;7.126;2022-07-04T02:20:37;101105.00;;;18.60
9119;BMP180;4594;50.994;7.126;2022-07-04T02:23:04;101099.00;;;18.50
9119;BMP180;4594;50.994;7.126;2022-07-04T02:25:31;101091.00;;;18.50
9119;BMP180;4594;50.994;7.126;2022-07-04T02:27:57;101105.00;;;18.50
9119;BMP180;4594;50.994;7.126;2022-07-04T02:30:23;101112.00;;;18.40
9119;BMP180;4594;50.994;7.126;2022-07-04T02:32:49;101107.00;;;18.40
9119;BMP180;4594;50.994;7.126;2022-07-04T02:35:14;101109.00;;;18.40
9119;BMP180;4594;50.994;7.126;2022-07-04T02:37:40;101105.00;;;18.30
9119;BMP180;4594;50.994;7.126;2022-07-04T02:40:07;101121.00;;;18.30
9119;BMP180;4594;50.994;7.126;2022-07-04T02:42:34;101103.00;;;18.20
9119;BMP180;4594;50.994;7.126;2022-07-04T02:45:00;101117.00;;;18.20
9119;BMP180;4594;50.994;7.126;2022-07-04T02:47:27;101124.00;;;18.20
9119;BMP180;4594;50.994;7.126;2022-07-04T02:49:53;101119.00;;;18.10
9119;BMP180;4594;50.994;7.126;2022-07-04T02:52:19;101125.00;;;18.10
9119;BMP180;4594;50.994;7.126;2022-07-04T02:54:45;101125.00;;;18.10
9119;BMP180;4594;50.994;7.126;2022-07-04T02:57:12;101121.00;;;18.10
9119;BMP180;4594;50.994;7.126;2022-07-04T02:59:38;101133.00;;;18.00
9119;BMP180;4594;50.994;7.126;2022-07-04T03:02:05;101132.00;;;18.00
9119;BMP180;4594;50.994;7.126;2022-07-04T03:04:30;101129.00;;;18.00
9119;BMP180;4594;50.994;7.126;2022-07-04T03:06:56;101123.00;;;17.90
9119;BMP180;4594;50.994;7.126;2022-07-04T03:09:22;101132.00;;;17.90
9119;BMP180;4594;50.994;7.126;2022-07-04T03:11:47;101138.00;;;17.90
9119;BMP180;4594;50.994;7.126;2022-07-04T03:14:13;101151.00;;;17.90
9119;BMP180;4594;50.994;7.126;2022-07-04T03:16:39;101144.00;;;17.80
9119;BMP180;4594;50.994;7.126;2022-07-04T03:19:05;101154.00;;;17.90
9119;BMP180;4594;50.994;7.126;2022-07-04T03:21:30;101154.00;;;17.80
9119;BMP180;4594;50.994;7.126;2022-07-04T03:23:56;101164.00;;;17.80
9119;BMP180;4594;50.994;7.126;2022-07-04T03:26:29;101158.00;;;17.80
9119;BMP180;4594;50.994;7.126;2022-07-04T03:28:57;101160.00;;;17.80
9119;BMP180;4594;50.994;7.126;2022-07-04T03:31:23;101159.00;;;17.80
9119;BMP180;4594;50.994;7.126;2022-07-04T03:33:49;101170.00;;;17.80
9119;BMP180;4594;50.994;7.126;2022-07-04T03:36:16;101166.00;;;17.80
9119;BMP180;4594;50.994;7.126;2022-07-04T03:38:41;101169.00;;;17.80
9119;BMP180;4594;50.994;7.126;2022-07-04T03:41:07;101164.00;;;17.80
9119;BMP180;4594;50.994;7.126;2022-07-04T03:43:33;101164.00;;;17.80
9119;BMP180;4594;50.994;7.126;2022-07-04T03:45:59;101153.00;;;17.80
9119;BMP180;4594;50.994;7.126;2022-07-04T03:48:25;101158.00;;;17.70
9119;BMP180;4594;50.994;7.126;2022-07-04T03:50:51;101172.00;;;17.80
9119;BMP180;4594;50.994;7.126;2022-07-04T03:53:16;101181.00;;;17.80
9119;BMP180;4594;50.994;7.126;2022-07-04T03:55:42;101186.00;;;17.80
9119;BMP180;4594;50.994;7.126;2022-07-04T03:58:08;101179.00;;;17.80
9119;BMP180;4594;50.994;7.126;2022-07-04T04:00:34;101182.00;;;17.80
9119;BMP180;4594;50.994;7.126;2022-07-04T04:03:01;101171.00;;;17.80
9119;BMP180;4594;50.994;7.126;2022-07-04T04:05:26;101180.00;;;17.80
9119;BMP180;4594;50.994;7.126;2022-07-04T04:08:00;101175.00;;;17.80
9119;BMP180;4594;50.994;7.126;2022-07-04T04:10:30;101168.00;;;17.80
9119;BMP180;4594;50.994;7.126;2022-07-04T04:12:57;101168.00;;;17.80
9119;BMP180;4594;50.994;7.126;2022-07-04T04:15:23;101170.00;;;17.90
9119;BMP180;4594;50.994;7.126;2022-07-04T04:17:49;101180.00;;;17.90
9119;BMP180;4594;50.994;7.126;2022-07-04T04:20:15;101174.00;;;17.90
9119;BMP180;4594;50.994;7.126;2022-07-04T04:22:41;101169.00;;;17.90
9119;BMP180;4594;50.994;7.126;2022-07-04T04:25:07;101152.00;;;17.90
9119;BMP180;4594;50.994;7.126;2022-07-04T04:27:33;101158.00;;;18.00
9119;BMP180;4594;50.994;7.126;2022-07-04T04:29:59;101173.00;;;18.00
9119;BMP180;4594;50.994;7.126;2022-07-04T04:32:24;101154.00;;;18.00
9119;BMP180;4594;50.994;7.126;2022-07-04T04:34:50;101167.00;;;18.00
9119;BMP180;4594;50.994;7.126;2022-07-04T04:37:16;101176.00;;;18.10
9119;BMP180;4594;50.994;7.126;2022-07-04T04:39:41;101171.00;;;18.10
9119;BMP180;4594;50.994;7.126;2022-07-04T04:42:07;101165.00;;;18.20
9119;BMP180;4594;50.994;7.126;2022-07-04T04:44:33;101172.00;;;18.30
9119;BMP180;4594;50.994;7.126;2022-07-04T04:46:58;101176.00;;;18.40
9119;BMP180;4594;50.994;7.126;2022-07-04T04:49:24;101169.00;;;18.50
9119;BMP180;4594;50.994;7.126;2022-07-04T04:51:50;101168.00;;;18.60
9119;BMP180;4594;50.994;7.126;2022-07-04T04:54:15;101177.00;;;18.80
9119;BMP180;4594;50.994;7.126;2022-07-04T04:56:42;101172.00;;;19.00
9119;BMP180;4594;50.994;7.126;2022-07-04T04:59:08;101164.00;;;19.20
9119;BMP180;4594;50.994;7.126;2022-07-04T05:01:35;101187.00;;;19.40
9119;BMP180;4594;50.994;7.126;2022-07-04T05:04:01;101190.00;;;19.60
9119;BMP180;4594;50.994;7.126;2022-07-04T05:06:27;101186.00;;;19.90
9119;BMP180;4594;50.994;7.126;2022-07-04T05:08:52;101173.00;;;20.20
9119;BMP180;4594;50.994;7.126;2022-07-04T05:11:18;101171.00;;;20.50
9119;BMP180;4594;50.994;7.126;2022-07-04T05:13:44;101193.00;;;20.80
9119;BMP180;4594;50.994;7.126;2022-07-04T05:16:09;101190.00;;;21.20
9119;BMP180;4594;50.994;7.126;2022-07-04T05:18:35;101188.00;;;21.60
9119;BMP180;4594;50.994;7.126;2022-07-04T05:21:01;101189.00;;;22.00
9119;BMP180;4594;50.994;7.126;2022-07-04T05:23:27;101178.00;;;22.30
9119;BMP180;4594;50.994;7.126;2022-07-04T05:25:53;101181.00;;;22.70
9119;BMP180;4594;50.994;7.126;2022-07-04T05:28:18;101179.00;;;23.00
9119;BMP180;4594;50.994;7.126;2022-07-04T05:30:44;101170.00;;;23.40
9119;BMP180;4594;50.994;7.126;2022-07-04T05:33:10;101184.00;;;23.70
9119;BMP180;4594;50.994;7.126;2022-07-04T05:35:37;101193.00;;;24.10
9119;BMP180;4594;50.994;7.126;2022-07-04T05:38:03;101198.00;;;24.40
9119;BMP180;4594;50.994;7.126;2022-07-04T05:40:29;101185.00;;;24.80
9119;BMP180;4594;50.994;7.126;2022-07-04T05:42:55;101193.00;;;25.30
9119;BMP180;4594;50.994;7.126;2022-07-04T05:45:22;101184.00;;;25.70
9119;BMP180;4594;50.994;7.126;2022-07-04T05:47:47;101194.00;;;26.20
9119;BMP180;4594;50.994;7.126;2022-07-04T05:50:13;101182.00;;;26.60
9119;BMP180;4594;50.994;7.126;2022-07-04T05:52:39;101197.00;;;27.00
9119;BMP180;4594;50.994;7.126;2022-07-04T05:55:07;101197.00;;;27.50
9119;BMP180;4594;50.994;7.126;2022-07-04T05:57:34;101208.00;;;27.90
9119;BMP180;4594;50.994;7.126;2022-07-04T06:00:01;101209.00;;;28.30
9119;BMP180;4594;50.994;7.126;2022-07-04T06:02:26;101200.00;;;28.60
9119;BMP180;4594;50.994;7.126;2022-07-04T06:04:52;101205.00;;;29.00
9119;BMP180;4594;50.994;7.126;2022-07-04T06:07:18;101203.00;;;29.30
9119;BMP180;4594;50.994;7.126;2022-07-04T06:09:43;101205.00;;;29.70
9119;BMP180;4594;50.994;7.126;2022-07-04T06:12:10;101202.00;;;30.20
9119;BMP180;4594;50.994;7.126;2022-07-04T06:14:35;101198.00;;;30.60
9119;BMP180;4594;50.994;7.126;2022-07-04T06:17:01;101209.00;;;31.00
9119;BMP180;4594;50.994;7.126;2022-07-04T06:19:27;101198.00;;;31.50
9119;BMP180;4594;50.994;7.126;2022-07-04T06:21:53;101209.00;;;31.90
9119;BMP180;4594;50.994;7.126;2022-07-04T06:24:18;101207.00;;;32.40
9119;BMP180;4594;50.994;7.126;2022-07-04T06:26:44;101205.00;;;32.80
9119;BMP180;4594;50.994;7.126;2022-07-04T06:29:10;101195.00;;;33.20
9119;BMP180;4594;50.994;7.126;2022-07-04T06:31:36;101192.00;;;33.60
9119;BMP180;4594;50.994;7.126;2022-07-04T06:34:01;101197.00;;;34.00
9119;BMP180;4594;50.994;7.126;2022-07-04T06:36:46;101196.00;;;34.30
9119;BMP180;4594;50.994;7.126;2022-07-04T06:39:12;101202.00;;;34.40
9119;BMP180;4594;50.994;7.126;2022-07-04T06:41:37;101205.00;;;34.60
9119;BMP180;4594;50.994;7.126;2022-07-04T06:44:04;101200.00;;;34.90
9119;BMP180;4594;50.994;7.126;2022-07-04T06:46:30;101197.00;;;35.20
9119;BMP180;4594;50.994;7.126;2022-07-04T06:48:56;101197.00;;;35.50
9119;BMP180;4594;50.994;7.126;2022-07-04T06:51:23;101203.00;;;35.90
9119;BMP180;4594;50.994;7.126;2022-07-04T06:53:49;101207.00;;;36.30
9119;BMP180;4594;50.994;7.126;2022-07-04T06:56:16;101202.00;;;36.70
9119;BMP180;4594;50.994;7.126;2022-07-04T06:58:42;101204.00;;;37.10
9119;BMP180;4594;50.994;7.126;2022-07-04T07:01:07;101195.00;;;37.50
9119;BMP180;4594;50.994;7.126;2022-07-04T07:03:33;101201.00;;;37.90
9119;BMP180;4594;50.994;7.126;2022-07-04T07:05:59;101197.00;;;38.30
9119;BMP180;4594;50.994;7.126;2022-07-04T07:08:25;101192.00;;;38.70
9119;BMP180;4594;50.994;7.126;2022-07-04T07:10:50;101190.00;;;39.00
9119;BMP180;4594;50.994;7.126;2022-07-04T07:13:16;101187.00;;;39.30
9119;BMP180;4594;50.994;7.126;2022-07-04T07:15:42;101194.00;;;39.50
9119;BMP180;4594;50.994;7.126;2022-07-04T07:18:07;101178.00;;;39.70
9119;BMP180;4594;50.994;7.126;2022-07-04T07:20:33;101193.00;;;39.90
9119;BMP180;4594;50.994;7.126;2022-07-04T07:23:03;101184.00;;;40.10
9119;BMP180;4594;50.994;7.126;2022-07-04T07:25:30;101189.00;;;40.40
9119;BMP180;4594;50.994;7.126;2022-07-04T07:27:56;101184.00;;;40.70
9119;BMP180;4594;50.994;7.126;2022-07-04T07:30:22;101190.00;;;41.00
9119;BMP180;4594;50.994;7.126;2022-07-04T07:32:48;101172.00;;;41.20
9119;BMP180;4594;50.994;7.126;2022-07-04T07:35:13;101189.00;;;41.40
9119;BMP180;4594;50.994;7.126;2022-07-04T07:37:40;101183.00;;;41.70
9119;BMP180;4594;50.994;7.126;2022-07-04T07:40:07;101179.00;;;41.90
9119;BMP180;4594;50.994;7.126;2022-07-04T07:42:33;101179.00;;;42.10
9119;BMP180;4594;50.994;7.126;2022-07-04T07:44:59;101180.00;;;42.30
9119;BMP180;4594;50.994;7.126;2022-07-04T07:47:25;101183.00;;;42.50
9119;BMP180;4594;50.994;7.126;2022-07-04T07:49:51;101185.00;;;42.70
9119;BMP180;4594;50.994;7.126;2022-07-04T07:52:16;101187.00;;;43.00
9119;BMP180;4594;50.994;7.126;2022-07-04T07:54:43;101189.00;;;43.20
9119;BMP180;4594;50.994;7.126;2022-07-04T07:57:09;101176.00;;;43.30
9119;BMP180;4594;50.994;7.126;2022-07-04T07:59:35;101171.00;;;43.50
9119;BMP180;4594;50.994;7.126;2022-07-04T08:02:00;101188.00;;;43.80
9119;BMP180;4594;50.994;7.126;2022-07-04T08:04:26;101186.00;;;43.90
9119;BMP180;4594;50.994;7.126;2022-07-04T08:07:07;101184.00;;;44.10
9119;BMP180;4594;50.994;7.126;2022-07-04T08:09:34;101184.00;;;44.30
9119;BMP180;4594;50.994;7.126;2022-07-04T08:12:03;101186.00;;;44.50
9119;BMP180;4594;50.994;7.126;2022-07-04T08:14:30;101190.00;;;44.70
9119;BMP180;4594;50.994;7.126;2022-07-04T08:16:57;101186.00;;;44.40
9119;BMP180;4594;50.994;7.126;2022-07-04T08:19:25;101194.00;;;44.50
9119;BMP180;4594;50.994;7.126;2022-07-04T08:21:54;101192.00;;;44.60
9119;BMP180;4594;50.994;7.126;2022-07-04T08:24:20;101198.00;;;44.90
9119;BMP180;4594;50.994;7.126;2022-07-04T08:26:46;101197.00;;;45.20
9119;BMP180;4594;50.994;7.126;2022-07-04T08:29:13;101193.00;;;45.40
9119;BMP180;4594;50.994;7.126;2022-07-04T08:31:39;101190.00;;;45.60
9119;BMP180;4594;50.994;7.126;2022-07-04T08:34:05;101186.00;;;45.80
9119;BMP180;4594;50.994;7.126;2022-07-04T08:36:30;101195.00;;;46.10
9119;BMP180;4594;50.994;7.126;2022-07-04T08:38:56;101197.00;;;46.30
9119;BMP180;4594;50.994;7.126;2022-07-04T08:41:22;101194.00;;;46.60
9119;BMP180;4594;50.994;7.126;2022-07-04T08:43:48;101196.00;;;46.90
9119;BMP180;4594;50.994;7.126;2022-07-04T08:46:16;101202.00;;;47.20
9119;BMP180;4594;50.994;7.126;2022-07-04T08:48:52;101208.00;;;47.40
9119;BMP180;4594;50.994;7.126;2022-07-04T08:54:01;101187.00;;;47.90
9119;BMP180;4594;50.994;7.126;2022-07-04T08:56:27;101193.00;;;48.00
9119;BMP180;4594;50.994;7.126;2022-07-04T08:59:14;101198.00;;;48.00
9119;BMP180;4594;50.994;7.126;2022-07-04T09:01:42;101193.00;;;48.00
9119;BMP180;4594;50.994;7.126;2022-07-04T09:04:10;101196.00;;;48.10
9119;BMP180;4594;50.994;7.126;2022-07-04T09:06:37;101199.00;;;48.20
9119;BMP180;4594;50.994;7.126;2022-07-04T09:09:04;101194.00;;;48.30
9119;BMP180;4594;50.994;7.126;2022-07-04T09:11:31;101196.00;;;48.40
9119;BMP180;4594;50.994;7.126;2022-07-04T09:13:57;101183.00;;;48.60
9119;BMP180;4594;50.994;7.126;2022-07-04T09:16:23;101196.00;;;48.60
9119;BMP180;4594;50.994;7.126;2022-07-04T09:18:53;101194.00;;;48.60
9119;BMP180;4594;50.994;7.126;2022-07-04T09:21:23;101206.00;;;48.60
9119;BMP180;4594;50.994;7.126;2022-07-04T09:24:07;101187.00;;;48.60
9119;BMP180;4594;50.994;7.126;2022-07-04T09:26:32;101195.00;;;48.60
9119;BMP180;4594;50.994;7.126;2022-07-04T09:28:58;101190.00;;;48.80
9119;BMP180;4594;50.994;7.126;2022-07-04T09:31:28;101188.00;;;49.00
9119;BMP180;4594;50.994;7.126;2022-07-04T09:33:58;101185.00;;;49.10
9119;BMP180;4594;50.994;7.126;2022-07-04T09:36:30;101184.00;;;49.30
9119;BMP180;4594;50.994;7.126;2022-07-04T09:39:19;101182.00;;;49.40
9119;BMP180;4594;50.994;7.126;2022-07-04T09:41:58;101178.00;;;49.50
9119;BMP180;4594;50.994;7.126;2022-07-04T09:44:43;101178.00;;;49.50
9119;BMP180;4594;50.994;7.126;2022-07-04T09:47:24;101174.00;;;49.40
9119;BMP180;4594;50.994;7.126;2022-07-04T09:50:05;101168.00;;;49.40
9119;BMP180;4594;50.994;7.126;2022-07-04T09:52:43;101161.00;;;49.40
9119;BMP180;4594;50.994;7.126;2022-07-04T09:55:09;101154.00;;;49.20
9119;BMP180;4594;50.994;7.126;2022-07-04T09:57:35;101165.00;;;49.20
9119;BMP180;4594;50.994;7.126;2022-07-04T10:00:25;101161.00;;;49.20
9119;BMP180;4594;50.994;7.126;2022-07-04T10:02:54;101164.00;;;49.40
9119;BMP180;4594;50.994;7.126;2022-07-04T10:05:29;101173.00;;;49.60
9119;BMP180;4594;50.994;7.126;2022-07-04T10:07:57;101172.00;;;49.80
9119;BMP180;4594;50.994;7.126;2022-07-04T10:10:37;101172.00;;;49.90
9119;BMP180;4594;50.994;7.126;2022-07-04T10:13:11;101172.00;;;50.00
9119;BMP180;4594;50.994;7.126;2022-07-04T10:15:40;101170.00;;;50.00
9119;BMP180;4594;50.994;7.126;2022-07-04T10:18:07;101176.00;;;50.00
9119;BMP180;4594;50.994;7.126;2022-07-04T10:20:34;101168.00;;;50.10
9119;BMP180;4594;50.994;7.126;2022-07-04T10:23:01;101153.00;;;50.20
9119;BMP180;4594;50.994;7.126;2022-07-04T10:25:28;101168.00;;;50.30
9119;BMP180;4594;50.994;7.126;2022-07-04T10:27:55;101153.00;;;50.50
9119;BMP180;4594;50.994;7.126;2022-07-04T10:30:31;101157.00;;;50.60
9119;BMP180;4594;50.994;7.126;2022-07-04T10:33:00;101142.00;;;50.80
9119;BMP180;4594;50.994;7.126;2022-07-04T10:36:00;101148.00;;;50.80
9119;BMP180;4594;50.994;7.126;2022-07-04T10:38:46;101147.00;;;51.00
9119;BMP180;4594;50.994;7.126;2022-07-04T10:41:12;101149.00;;;51.00
9119;BMP180;4594;50.994;7.126;2022-07-04T10:43:55;101149.00;;;50.90
9119;BMP180;4594;50.994;7.126;2022-07-04T10:46:26;101156.00;;;50.80
9119;BMP180;4594;50.994;7.126;2022-07-04T10:54:27;101136.00;;;50.00
9119;BMP180;4594;50.994;7.126;2022-07-04T10:56:57;101121.00;;;49.90
9119;BMP180;4594;50.994;7.126;2022-07-04T10:59:31;101121.00;;;49.90
9119;BMP180;4594;50.994;7.126;2022-07-04T11:04:52;101114.00;;;49.70
9119;BMP180;4594;50.994;7.126;2022-07-04T11:18:02;101144.00;;;48.50
9119;BMP180;4594;50.994;7.126;2022-07-04T11:20:32;101122.00;;;47.50
9119;BMP180;4594;50.994;7.126;2022-07-04T11:23:08;101121.00;;;47.50
9119;BMP180;4594;50.994;7.126;2022-07-04T11:25:34;101117.00;;;47.70
9119;BMP180;4594;50.994;7.126;2022-07-04T11:28:23;101122.00;;;47.90
9119;BMP180;4594;50.994;7.126;2022-07-04T11:30:58;101118.00;;;48.00
9119;BMP180;4594;50.994;7.126;2022-07-04T11:33:30;101135.00;;;48.10
9119;BMP180;4594;50.994;7.126;2022-07-04T11:38:51;101141.00;;;47.30
9119;BMP180;4594;50.994;7.126;2022-07-04T11:41:22;101149.00;;;46.20
9119;BMP180;4594;50.994;7.126;2022-07-04T11:44:10;101145.00;;;45.10
9119;BMP180;4594;50.994;7.126;2022-07-04T11:47:39;101140.00;;;43.80
9119;BMP180;4594;50.994;7.126;2022-07-04T11:50:14;101145.00;;;42.90
9119;BMP180;4594;50.994;7.126;2022-07-04T11:52:49;101139.00;;;42.20
9119;BMP180;4594;50.994;7.126;2022-07-04T11:55:19;101144.00;;;41.60
9119;BMP180;4594;50.994;7.126;2022-07-04T11:57:49;101142.00;;;41.00
9119;BMP180;4594;50.994;7.126;2022-07-04T12:00:20;101143.00;;;40.40
9119;BMP180;4594;50.994;7.126;2022-07-04T12:02:48;101141.00;;;39.90
9119;BMP180;4594;50.994;7.126;2022-07-04T12:05:16;101129.00;;;39.40
9119;BMP180;4594;50.994;7.126;2022-07-04T12:07:45;101126.00;;;39.00
9119;BMP180;4594;50.994;7.126;2022-07-04T12:12:57;101128.00;;;38.20
9119;BMP180;4594;50.994;7.126;2022-07-04T12:15:25;101111.00;;;37.90
9119;BMP180;4594;50.994;7.126;2022-07-04T12:18:00;101110.00;;;37.60
9119;BMP180;4594;50.994;7.126;2022-07-04T12:20:26;101107.00;;;37.30
9119;BMP180;4594;50.994;7.126;2022-07-04T12:22:58;101089.00;;;37.10
9119;BMP180;4594;50.994;7.126;2022-07-04T12:25:35;101113.00;;;36.90
9119;BMP180;4594;50.994;7.126;2022-07-04T12:28:11;101117.00;;;36.70
9119;BMP180;4594;50.994;7.126;2022-07-04T12:30:47;101114.00;;;36.50
9119;BMP180;4594;50.994;7.126;2022-07-04T12:33:13;101109.00;;;36.30
9119;BMP180;4594;50.994;7.126;2022-07-04T12:35:48;101109.00;;;36.10
9119;BMP180;4594;50.994;7.126;2022-07-04T12:41:06;101109.00;;;35.80
9119;BMP180;4594;50.994;7.126;2022-07-04T12:46:30;101101.00;;;35.40
9119;BMP180;4594;50.994;7.126;2022-07-04T12:48:57;101094.00;;;35.40
9119;BMP180;4594;50.994;7.126;2022-07-04T12:51:31;101101.00;;;35.30
9119;BMP180;4594;50.994;7.126;2022-07-04T12:54:05;101089.00;;;35.20
9119;BMP180;4594;50.994;7.126;2022-07-04T12:56:38;101100.00;;;35.10
9119;BMP180;4594;50.994;7.126;2022-07-04T12:59:07;101103.00;;;35.00
9119;BMP180;4594;50.994;7.126;2022-07-04T13:01:34;101091.00;;;34.80
9119;BMP180;4594;50.994;7.126;2022-07-04T13:04:00;101112.00;;;34.70
9119;BMP180;4594;50.994;7.126;2022-07-04T13:06:26;101090.00;;;34.60
9119;BMP180;4594;50.994;7.126;2022-07-04T13:08:54;101085.00;;;34.60
9119;BMP180;4594;50.994;7.126;2022-07-04T13:11:20;101084.00;;;34.60
9119;BMP180;4594;50.994;7.126;2022-07-04T13:14:05;101089.00;;;34.40
9119;BMP180;4594;50.994;7.126;2022-07-04T13:16:31;101091.00;;;34.30
9119;BMP180;4594;50.994;7.126;2022-07-04T13:18:57;101087.00;;;34.10
9119;BMP180;4594;50.994;7.126;2022-07-04T13:21:23;101049.00;;;34.00
9119;BMP180;4594;50.994;7.126;2022-07-04T13:23:49;101076.00;;;33.90
9119;BMP180;4594;50.994;7.126;2022-07-04T13:26:16;101106.00;;;33.80
9119;BMP180;4594;50.994;7.126;2022-07-04T13:28:42;101077.00;;;33.80
9119;BMP180;4594;50.994;7.126;2022-07-04T13:31:07;101082.00;;;33.70
9119;BMP180;4594;50.994;7.126;2022-07-04T13:33:33;101101.00;;;33.70
9119;BMP180;4594;50.994;7.126;2022-07-04T13:35:59;101102.00;;;33.70
9119;BMP180;4594;50.994;7.126;2022-07-04T13:38:24;101081.00;;;33.60
9119;BMP180;4594;50.994;7.126;2022-07-04T13:40:51;101054.00;;;33.60
9119;BMP180;4594;50.994;7.126;2022-07-04T13:43:17;101080.00;;;33.50
9119;BMP180;4594;50.994;7.126;2022-07-04T13:45:44;101081.00;;;33.40
9119;BMP180;4594;50.994;7.126;2022-07-04T13:48:12;101080.00;;;33.30
9119;BMP180;4594;50.994;7.126;2022-07-04T13:50:38;101078.00;;;33.30
9119;BMP180;4594;50.994;7.126;2022-07-04T13:53:05;101077.00;;;33.30
9119;BMP180;4594;50.994;7.126;2022-07-04T13:55:32;101067.00;;;33.20
9119;BMP180;4594;50.994;7.126;2022-07-04T13:58:03;101084.00;;;33.20
9119;BMP180;4594;50.994;7.126;2022-07-04T14:00:29;101069.00;;;33.20
9119;BMP180;4594;50.994;7.126;2022-07-04T14:02:55;101067.00;;;33.20
9119;BMP180;4594;50.994;7.126;2022-07-04T14:05:21;101066.00;;;33.10
9119;BMP180;4594;50.994;7.126;2022-07-04T14:07:47;101060.00;;;33.10
9119;BMP180;4594;50.994;7.126;2022-07-04T14:10:13;101068.00;;;33.00
9119;BMP180;4594;50.994;7.126;2022-07-04T14:12:39;101079.00;;;33.00
9119;BMP180;4594;50.994;7.126;2022-07-04T14:15:06;101073.00;;;32.90
9119;BMP180;4594;50.994;7.126;2022-07-04T14:17:32;101056.00;;;32.90
9119;BMP180;4594;50.994;7.126;2022-07-04T14:19:58;101060.00;;;32.80
9119;BMP180;4594;50.994;7.126;2022-07-04T14:22:23;101038.00;;;32.80
9119;BMP180;4594;50.994;7.126;2022-07-04T14:24:49;101056.00;;;32.70
9119;BMP180;4594;50.994;7.126;2022-07-04T14:27:15;101067.00;;;32.70
9119;BMP180;4594;50.994;7.126;2022-07-04T14:29:41;101052.00;;;32.60
9119;BMP180;4594;50.994;7.126;2022-07-04T14:32:07;101062.00;;;32.60
9119;BMP180;4594;50.994;7.126;2022-07-04T14:34:33;101047.00;;;32.50
9119;BMP180;4594;50.994;7.126;2022-07-04T14:37:00;101025.00;;;32.50
9119;BMP180;4594;50.994;7.126;2022-07-04T14:39:26;101053.00;;;32.40
9119;BMP180;4594;50.994;7.126;2022-07-04T14:41:53;101045.00;;;32.30
9119;BMP180;4594;50.994;7.126;2022-07-04T14:44:19;101045.00;;;32.30
9119;BMP180;4594;50.994;7.126;2022-07-04T14:46:45;101047.00;;;32.20
9119;BMP180;4594;50.994;7.126;2022-07-04T14:49:11;101019.00;;;32.20
9119;BMP180;4594;50.994;7.126;2022-07-04T14:51:37;101029.00;;;32.20
9119;BMP180;4594;50.994;7.126;2022-07-04T14:54:07;101042.00;;;32.10
9119;BMP180;4594;50.994;7.126;2022-07-04T14:56:34;101035.00;;;32.10
9119;BMP180;4594;50.994;7.126;2022-07-04T14:59:01;101016.00;;;32.00